Time;durP1;ratioP1;P1;durP2;ratioP2;P2;SDS_P1;SDS_P2;PMS_P1;PMS_P2;Temp;Humidity;BMP_temperature;BMP_pressure;BME280_temperature;BME280_humidity;BME280_pressure;Samples;Min_cycle;Max_cycle;Signal;HPM_P1;HPM_P2
2022/03/25 00:01:22;;;;;;;29.27;12.55;;;;;;;;;;5057876;28;20052;-64
2022/03/25 00:03:49;;;;;;;29.67;12.50;;;;;;;;;;5077933;28;20095;-60
2022/03/25 00:06:17;;;;;;;33.92;13.30;;;;;;;;;;5068612;28;20131;-60
2022/03/25 00:08:43;;;;;;;29.63;12.38;;;;;;;;;;5063725;28;20075;-62
2022/03/25 00:11:11;;;;;;;38.25;13.32;;;;;;;;;;5107559;28;20101;-66
2022/03/25 00:13:38;;;;;;;32.58;12.60;;;;;;;;;;5102299;28;20061;-62
2022/03/25 00:16:07;;;;;;;27.25;11.98;;;;;;;;;;5080108;28;20044;-62
2022/03/25 00:18:34;;;;;;;36.88;15.48;;;;;;;;;;5066199;28;20049;-64
2022/03/25 00:21:01;;;;;;;29.42;13.57;;;;;;;;;;5060175;28;20090;-66
2022/03/25 00:23:29;;;;;;;31.40;12.73;;;;;;;;;;5063403;28;20056;-69
2022/03/25 00:25:56;;;;;;;;;;;;;;;;;;5055895;28;20052;-63
2022/03/25 00:28:22;;;;;;;32.92;12.88;;;;;;;;;;5065563;28;20011;-68
2022/03/25 00:30:49;;;;;;;28.75;11.73;;;;;;;;;;5050671;28;20052;-60
2022/03/25 00:33:17;;;;;;;27.25;11.48;;;;;;;;;;5068164;28;20116;-66
2022/03/25 00:35:44;;;;;;;27.85;11.95;;;;;;;;;;5096440;28;20060;-68
2022/03/25 00:38:12;;;;;;;29.52;11.60;;;;;;;;;;5085533;28;20155;-68
2022/03/25 00:40:38;;;;;;;29.58;12.10;;;;;;;;;;5082547;28;20083;-64
2022/03/25 00:43:05;;;;;;;28.35;12.00;;;;;;;;;;5107803;28;20063;-68
2022/03/25 00:45:32;;;;;;;27.55;12.43;;;;;;;;;;5102113;28;20115;-66
2022/03/25 00:47:59;;;;;;;32.50;11.95;;;;;;;;;;5090274;28;20052;-63
2022/03/25 00:50:27;;;;;;;27.73;11.90;;;;;;;;;;5084853;28;20079;-68
2022/03/25 00:52:55;;;;;;;33.40;12.15;;;;;;;;;;5090318;28;20052;-64
2022/03/25 00:55:22;;;;;;;25.98;11.52;;;;;;;;;;5085731;28;20056;-60
2022/03/25 00:57:48;;;;;;;30.08;11.48;;;;;;;;;;5087616;28;20056;-66
2022/03/25 01:00:15;;;;;;;26.80;11.27;;;;;;;;;;5090380;28;20048;-63
2022/03/25 01:02:42;;;;;;;27.15;11.88;;;;;;;;;;5068626;28;20056;-69
2022/03/25 01:05:08;;;;;;;35.97;13.68;;;;;;;;;;5070432;28;20144;-63
2022/03/25 01:07:36;;;;;;;27.13;11.90;;;;;;;;;;5079573;28;20044;-62
2022/03/25 01:10:03;;;;;;;30.70;12.13;;;;;;;;;;5089328;28;20083;-67
2022/03/25 01:12:30;;;;;;;30.85;13.13;;;;;;;;;;5083343;28;20066;-63
2022/03/25 01:14:57;;;;;;;28.50;11.63;;;;;;;;;;5077586;28;20056;-62
2022/03/25 01:17:23;;;;;;;31.73;13.45;;;;;;;;;;5081387;28;20083;-64
2022/03/25 01:19:50;;;;;;;31.65;11.85;;;;;;;;;;5089107;28;20059;-62
2022/03/25 01:22:17;;;;;;;30.63;12.52;;;;;;;;;;5071309;28;20084;-60
2022/03/25 01:24:45;;;;;;;26.42;11.38;;;;;;;;;;5089890;28;20071;-61
2022/03/25 01:27:12;;;;;;;26.85;11.43;;;;;;;;;;5089616;28;20043;-60
2022/03/25 01:29:40;;;;;;;29.73;12.18;;;;;;;;;;5111768;28;20059;-59
2022/03/25 01:32:07;;;;;;;27.63;12.00;;;;;;;;;;5102966;28;20050;-61
2022/03/25 01:34:34;;;;;;;28.07;11.43;;;;;;;;;;5090216;28;20051;-61
2022/03/25 01:37:01;;;;;;;36.13;11.75;;;;;;;;;;5066895;28;20318;-64
2022/03/25 01:39:28;;;;;;;28.20;11.23;;;;;;;;;;5089829;28;20063;-64
2022/03/25 01:41:56;;;;;;;27.15;10.85;;;;;;;;;;5090573;28;20056;-59
2022/03/25 01:44:27;;;;;;;25.88;11.15;;;;;;;;;;5083333;28;20067;-60
2022/03/25 01:46:54;;;;;;;28.08;11.85;;;;;;;;;;5089510;28;20056;-60
2022/03/25 01:49:21;;;;;;;29.25;11.95;;;;;;;;;;5067399;28;20044;-62
2022/03/25 01:51:49;;;;;;;24.25;11.27;;;;;;;;;;5068494;28;20059;-61
2022/03/25 01:54:19;;;;;;;26.70;11.25;;;;;;;;;;5091185;28;20051;-60
2022/03/25 01:56:46;;;;;;;29.15;12.00;;;;;;;;;;5108720;28;20067;-64
2022/03/25 01:59:14;;;;;;;29.30;11.63;;;;;;;;;;5090201;28;20136;-62
2022/03/25 02:01:42;;;;;;;;;;;;;;;;;;5088771;28;20044;-60
2022/03/25 02:04:09;;;;;;;23.73;9.75;;;;;;;;;;5097662;28;19924;-66
2022/03/25 02:06:36;;;;;;;27.50;11.15;;;;;;;;;;5089215;28;20061;-63
2022/03/25 02:09:02;;;;;;;26.73;11.48;;;;;;;;;;5079278;28;20080;-65
2022/03/25 02:11:31;;;;;;;27.42;11.35;;;;;;;;;;5067804;28;20052;-63
2022/03/25 02:13:58;;;;;;;27.27;11.95;;;;;;;;;;5061316;28;20056;-60
2022/03/25 02:16:35;;;;;;;33.70;12.68;;;;;;;;;;5068352;28;20086;-64
2022/03/25 02:19:03;;;;;;;28.17;11.30;;;;;;;;;;5061982;28;20059;-62
2022/03/25 02:21:32;;;;;;;29.02;11.88;;;;;;;;;;5067722;28;20068;-64
2022/03/25 02:23:58;;;;;;;31.98;11.70;;;;;;;;;;5061259;28;20066;-61
2022/03/25 02:26:25;;;;;;;28.38;11.50;;;;;;;;;;5067737;28;20053;-66
2022/03/25 02:28:52;;;;;;;30.75;11.75;;;;;;;;;;5068311;28;20041;-61
2022/03/25 02:31:20;;;;;;;29.20;12.63;;;;;;;;;;5061500;28;20106;-66
2022/03/25 02:33:46;;;;;;;28.00;11.55;;;;;;;;;;5088982;28;20052;-66
2022/03/25 02:36:13;;;;;;;29.65;12.48;;;;;;;;;;5066494;28;20138;-67
2022/03/25 02:38:41;;;;;;;26.60;11.80;;;;;;;;;;5086164;28;20051;-64
2022/03/25 02:41:08;;;;;;;27.93;11.53;;;;;;;;;;5082011;28;20051;-63
2022/03/25 02:43:34;;;;;;;26.48;11.30;;;;;;;;;;5087883;28;20316;-61
2022/03/25 02:46:01;;;;;;;27.85;12.05;;;;;;;;;;5081634;28;20119;-61
2022/03/25 02:48:28;;;;;;;30.10;11.52;;;;;;;;;;5087996;28;20040;-67
2022/03/25 02:50:55;;;;;;;28.30;11.07;;;;;;;;;;5081825;28;20109;-62
2022/03/25 02:53:21;;;;;;;25.83;11.32;;;;;;;;;;5087974;28;20097;-64
2022/03/25 02:55:49;;;;;;;28.92;11.50;;;;;;;;;;5082074;28;20067;-63
2022/03/25 02:58:17;;;;;;;32.55;11.25;;;;;;;;;;5087167;28;20047;-64
2022/03/25 03:00:46;;;;;;;27.80;11.65;;;;;;;;;;5078288;28;20136;-61
2022/03/25 03:03:13;;;;;;;27.10;10.93;;;;;;;;;;5067866;28;20056;-61
2022/03/25 03:05:40;;;;;;;33.10;12.07;;;;;;;;;;5061356;28;20053;-61
2022/03/25 03:08:07;;;;;;;27.80;11.05;;;;;;;;;;5069709;28;20116;-63
2022/03/25 03:10:36;;;;;;;31.63;12.30;;;;;;;;;;5068475;28;20110;-59
2022/03/25 03:13:05;;;;;;;27.08;11.63;;;;;;;;;;5083459;28;20045;-63
2022/03/25 03:15:32;;;;;;;31.88;12.65;;;;;;;;;;5048970;28;20053;-64
2022/03/25 03:17:59;;;;;;;26.90;12.00;;;;;;;;;;5042568;28;20053;-60
2022/03/25 03:20:26;;;;;;;28.63;12.10;;;;;;;;;;5051895;28;20048;-63
2022/03/25 03:22:53;;;;;;;27.23;11.75;;;;;;;;;;5061207;28;20147;-65
2022/03/25 03:25:20;;;;;;;32.17;12.65;;;;;;;;;;5067118;28;20060;-66
2022/03/25 03:27:47;;;;;;;27.30;12.38;;;;;;;;;;5048509;28;20068;-62
2022/03/25 03:30:15;;;;;;;27.58;11.73;;;;;;;;;;5045869;28;20061;-64
2022/03/25 03:32:42;;;;;;;30.27;12.07;;;;;;;;;;5051682;28;20049;-63
2022/03/25 03:35:09;;;;;;;33.42;12.52;;;;;;;;;;5053522;28;20083;-60
2022/03/25 03:37:40;;;;;;;28.38;11.10;;;;;;;;;;5041901;28;20053;-59
2022/03/25 03:40:08;;;;;;;29.55;11.68;;;;;;;;;;5047115;28;20053;-59
2022/03/25 03:42:34;;;;;;;35.92;14.25;;;;;;;;;;5040794;28;20061;-65
2022/03/25 03:45:01;;;;;;;30.58;12.45;;;;;;;;;;5046633;28;20082;-61
2022/03/25 03:47:29;;;;;;;27.10;11.82;;;;;;;;;;5043905;28;20060;-63
2022/03/25 03:49:56;;;;;;;28.55;12.18;;;;;;;;;;5066436;28;20057;-59
2022/03/25 03:52:23;;;;;;;32.90;13.07;;;;;;;;;;5060110;28;20059;-60
2022/03/25 03:54:50;;;;;;;33.28;12.27;;;;;;;;;;5066290;28;20147;-61
2022/03/25 03:57:17;;;;;;;27.77;12.20;;;;;;;;;;5066079;28;20055;-60
2022/03/25 03:59:44;;;;;;;33.45;12.32;;;;;;;;;;5059760;28;20135;-65
2022/03/25 04:02:10;;;;;;;34.47;12.80;;;;;;;;;;5066459;28;20056;-63
2022/03/25 04:04:38;;;;;;;35.83;13.07;;;;;;;;;;5061321;28;20056;-63
2022/03/25 04:07:05;;;;;;;33.13;12.43;;;;;;;;;;5066753;28;20136;-61
2022/03/25 04:09:32;;;;;;;30.25;13.45;;;;;;;;;;5060858;28;20051;-63
2022/03/25 04:11:59;;;;;;;36.25;13.95;;;;;;;;;;5066331;28;20067;-62
2022/03/25 04:14:25;;;;;;;33.22;12.15;;;;;;;;;;5061994;28;20070;-65
2022/03/25 04:16:52;;;;;;;30.65;11.88;;;;;;;;;;5070986;28;20048;-61
2022/03/25 04:19:18;;;;;;;31.52;12.40;;;;;;;;;;5065564;28;20052;-60
2022/03/25 04:21:47;;;;;;;31.50;13.10;;;;;;;;;;5086690;28;20048;-67
2022/03/25 04:24:13;;;;;;;30.50;12.35;;;;;;;;;;5077903;28;20068;-61
2022/03/25 04:26:40;;;;;;;35.70;13.88;;;;;;;;;;5069847;28;20060;-60
2022/03/25 04:29:07;;;;;;;28.13;11.93;;;;;;;;;;5064754;28;20139;-64
2022/03/25 04:31:34;;;;;;;40.30;15.02;;;;;;;;;;5071368;28;20056;-61
2022/03/25 04:34:00;;;;;;;49.85;19.55;;;;;;;;;;5066585;28;20057;-59
2022/03/25 04:36:30;;;;;;;41.63;15.30;;;;;;;;;;5063766;28;20067;-64
2022/03/25 04:38:58;;;;;;;33.90;13.10;;;;;;;;;;5071479;28;20057;-63
2022/03/25 04:41:25;;;;;;;35.28;12.95;;;;;;;;;;5066235;28;20063;-61
2022/03/25 04:43:52;;;;;;;32.50;13.23;;;;;;;;;;5071506;28;20053;-64
2022/03/25 04:46:19;;;;;;;30.77;13.07;;;;;;;;;;5098958;28;20058;-61
2022/03/25 04:48:45;;;;;;;36.30;15.15;;;;;;;;;;5111351;28;20071;-59
2022/03/25 04:51:14;;;;;;;34.45;13.88;;;;;;;;;;5104077;28;20048;-60
2022/03/25 04:53:41;;;;;;;30.55;12.20;;;;;;;;;;5093683;28;20055;-62
2022/03/25 04:56:09;;;;;;;31.90;13.48;;;;;;;;;;5085615;28;20103;-61
2022/03/25 04:58:36;;;;;;;38.15;13.93;;;;;;;;;;5108539;28;20052;-62
2022/03/25 05:01:03;;;;;;;34.95;13.77;;;;;;;;;;5093608;28;20048;-63
2022/03/25 05:03:30;;;;;;;33.55;13.07;;;;;;;;;;5070317;28;20094;-63
2022/03/25 05:05:57;;;;;;;34.90;13.82;;;;;;;;;;5056216;28;20087;-61
2022/03/25 05:08:23;;;;;;;33.15;13.65;;;;;;;;;;5050206;28;20119;-61
2022/03/25 05:10:51;;;;;;;40.92;13.73;;;;;;;;;;5049304;28;20106;-62
2022/03/25 05:13:19;;;;;;;39.22;14.82;;;;;;;;;;5069839;28;20048;-59
2022/03/25 05:15:46;;;;;;;32.63;13.75;;;;;;;;;;5061654;28;20053;-58
2022/03/25 05:18:14;;;;;;;32.20;13.50;;;;;;;;;;5068960;28;20051;-60
2022/03/25 05:20:41;;;;;;;32.97;13.27;;;;;;;;;;5064315;28;20044;-60
2022/03/25 05:23:08;;;;;;;35.15;13.60;;;;;;;;;;5048149;28;20045;-60
2022/03/25 05:25:35;;;;;;;35.60;13.90;;;;;;;;;;5048804;28;20053;-60
2022/03/25 05:28:02;;;;;;;56.80;19.90;;;;;;;;;;5061260;28;20056;-66
2022/03/25 05:30:35;;;;;;;40.80;17.67;;;;;;;;;;5068976;28;20079;-63
2022/03/25 05:33:02;;;;;;;38.10;15.50;;;;;;;;;;5046809;28;20065;-64
2022/03/25 05:35:29;;;;;;;33.63;14.68;;;;;;;;;;5049729;28;20053;-63
2022/03/25 05:37:57;;;;;;;36.97;14.05;;;;;;;;;;5057094;28;20061;-64
2022/03/25 05:40:25;;;;;;;39.13;14.88;;;;;;;;;;5068275;28;20052;-62
2022/03/25 05:42:51;;;;;;;37.80;15.13;;;;;;;;;;5062938;28;20166;-59
2022/03/25 05:45:18;;;;;;;38.65;14.15;;;;;;;;;;5069086;28;20048;-65
2022/03/25 05:47:47;;;;;;;35.75;14.10;;;;;;;;;;5063916;28;20064;-64
2022/03/25 05:50:14;;;;;;;42.72;16.42;;;;;;;;;;5069598;28;20061;-66
2022/03/25 05:52:41;;;;;;;36.35;15.15;;;;;;;;;;5062939;28;20052;-63
2022/03/25 05:55:08;;;;;;;38.10;15.15;;;;;;;;;;5069056;28;20059;-61
2022/03/25 05:57:35;;;;;;;35.83;15.70;;;;;;;;;;5059954;28;20190;-64
2022/03/25 06:00:02;;;;;;;39.17;15.38;;;;;;;;;;5065511;28;20114;-60
2022/03/25 06:02:28;;;;;;;36.85;14.50;;;;;;;;;;5074009;28;20139;-65
2022/03/25 06:04:57;;;;;;;40.00;15.75;;;;;;;;;;5069349;28;20056;-64
2022/03/25 06:07:24;;;;;;;37.05;15.73;;;;;;;;;;5070578;28;20063;-64
2022/03/25 06:09:52;;;;;;;41.67;17.23;;;;;;;;;;5065367;28;20063;-63
2022/03/25 06:12:19;;;;;;;38.40;15.95;;;;;;;;;;5065585;28;20057;-64
2022/03/25 06:14:46;;;;;;;46.92;16.17;;;;;;;;;;5061613;28;20052;-64
2022/03/25 06:17:12;;;;;;;37.13;15.63;;;;;;;;;;5067067;28;20052;-65
2022/03/25 06:19:40;;;;;;;46.60;18.48;;;;;;;;;;5062700;28;20070;-64
2022/03/25 06:22:08;;;;;;;37.60;15.20;;;;;;;;;;5066269;28;20049;-62
2022/03/25 06:24:34;;;;;;;42.90;17.05;;;;;;;;;;5071577;28;20147;-65
2022/03/25 06:27:02;;;;;;;49.42;20.35;;;;;;;;;;5076959;28;20280;-62
2022/03/25 06:29:29;;;;;;;47.60;19.02;;;;;;;;;;5058824;28;20070;-64
2022/03/25 06:31:56;;;;;;;46.03;16.52;;;;;;;;;;5066949;28;20209;-59
2022/03/25 06:34:23;;;;;;;47.42;17.45;;;;;;;;;;5059956;28;20052;-60
2022/03/25 06:36:50;;;;;;;49.60;19.10;;;;;;;;;;5065936;28;20057;-64
2022/03/25 06:39:18;;;;;;;39.90;17.60;;;;;;;;;;5058861;28;20041;-59
2022/03/25 06:41:44;;;;;;;51.13;19.25;;;;;;;;;;5066755;28;20056;-66
2022/03/25 06:44:11;;;;;;;62.83;22.42;;;;;;;;;;5059307;28;20403;-64
2022/03/25 06:46:38;;;;;;;47.00;18.23;;;;;;;;;;5067315;28;20090;-61
2022/03/25 06:49:05;;;;;;;44.15;16.90;;;;;;;;;;5062872;28;20052;-60
2022/03/25 06:51:32;;;;;;;48.30;18.17;;;;;;;;;;5065048;28;20064;-60
2022/03/25 06:53:59;;;;;;;44.15;18.38;;;;;;;;;;5066133;28;20052;-61
2022/03/25 06:56:27;;;;;;;51.00;19.02;;;;;;;;;;5062281;28;20072;-66
2022/03/25 06:58:54;;;;;;;52.60;20.63;;;;;;;;;;5067192;28;20056;-59
2022/03/25 07:01:22;;;;;;;68.90;26.45;;;;;;;;;;5074728;28;20057;-65
2022/03/25 07:03:49;;;;;;;63.83;25.35;;;;;;;;;;5083641;28;20048;-65
2022/03/25 07:06:17;;;;;;;55.28;22.23;;;;;;;;;;5059726;28;20058;-65
2022/03/25 07:08:46;;;;;;;50.45;19.65;;;;;;;;;;5067323;28;20056;-63
2022/03/25 07:11:13;;;;;;;54.08;21.67;;;;;;;;;;5060658;28;20084;-61
2022/03/25 07:13:42;;;;;;;42.90;17.88;;;;;;;;;;5070877;28;20074;-63
2022/03/25 07:16:09;;;;;;;72.13;26.67;;;;;;;;;;5081443;28;20059;-63
2022/03/25 07:18:35;;;;;;;54.50;20.90;;;;;;;;;;5087906;28;20044;-67
2022/03/25 07:21:02;;;;;;;50.20;18.58;;;;;;;;;;5076350;28;20056;-61
2022/03/25 07:23:29;;;;;;;47.83;19.55;;;;;;;;;;5087345;28;20060;-64
2022/03/25 07:25:56;;;;;;;62.70;23.95;;;;;;;;;;5077846;28;20045;-65
2022/03/25 07:28:22;;;;;;;67.10;25.92;;;;;;;;;;5067505;28;20053;-64
2022/03/25 07:30:51;;;;;;;57.33;22.25;;;;;;;;;;5061200;28;20066;-63
2022/03/25 07:33:18;;;;;;;53.83;21.83;;;;;;;;;;5087213;28;20083;-60
2022/03/25 07:35:45;;;;;;;65.60;24.85;;;;;;;;;;5087454;28;20067;-63
2022/03/25 07:38:11;;;;;;;75.18;27.08;;;;;;;;;;5080328;28;20048;-61
2022/03/25 07:40:38;;;;;;;58.30;23.88;;;;;;;;;;5087137;28;20056;-59
2022/03/25 07:43:05;;;;;;;48.55;19.52;;;;;;;;;;5064366;28;20044;-60
2022/03/25 07:45:32;;;;;;;66.85;25.85;;;;;;;;;;5067142;28;20083;-60
2022/03/25 07:48:00;;;;;;;56.42;22.83;;;;;;;;;;5073825;28;20115;-59
2022/03/25 07:50:27;;;;;;;71.03;26.57;;;;;;;;;;5084786;28;20077;-60
2022/03/25 07:52:54;;;;;;;60.63;24.52;;;;;;;;;;5069343;28;20303;-62
2022/03/25 07:55:21;;;;;;;63.20;24.77;;;;;;;;;;5066503;28;20133;-59
2022/03/25 07:57:48;;;;;;;51.08;20.45;;;;;;;;;;5069330;28;20051;-61
2022/03/25 08:00:17;;;;;;;71.50;26.27;;;;;;;;;;5087588;28;20047;-60
2022/03/25 08:02:44;;;;;;;54.13;22.40;;;;;;;;;;5080535;28;20039;-63
2022/03/25 08:05:14;;;;;;;68.72;27.05;;;;;;;;;;5087100;28;20043;-62
2022/03/25 08:07:41;;;;;;;50.40;19.23;;;;;;;;;;5080851;28;20056;-59
2022/03/25 08:10:08;;;;;;;45.00;18.73;;;;;;;;;;5086833;28;20056;-60
2022/03/25 08:12:36;;;;;;;47.28;19.92;;;;;;;;;;5079145;28;20050;-62
2022/03/25 08:15:03;;;;;;;61.10;25.13;;;;;;;;;;5071626;28;20056;-63
2022/03/25 08:17:30;;;;;;;55.00;22.52;;;;;;;;;;5064868;28;20076;-63
2022/03/25 08:19:57;;;;;;;63.90;24.58;;;;;;;;;;5083360;28;20071;-59
2022/03/25 08:22:25;;;;;;;56.78;20.33;;;;;;;;;;5069678;28;20166;-65
2022/03/25 08:27:51;;;;;;;53.00;19.83;;;;;;;;;;5041249;28;20049;-61
2022/03/25 08:30:20;;;;;;;50.80;21.13;;;;;;;;;;5080975;28;20105;-60
2022/03/25 08:32:46;;;;;;;;;;;;;;;;;;5084568;28;20074;-64
2022/03/25 08:35:13;;;;;;;53.65;18.55;;;;;;;;;;5080206;28;19928;-59
2022/03/25 08:37:41;;;;;;;50.67;20.80;;;;;;;;;;5086999;28;20052;-62
2022/03/25 08:40:09;;;;;;;46.63;18.63;;;;;;;;;;5080595;28;20050;-59
2022/03/25 08:42:35;;;;;;;60.17;21.13;;;;;;;;;;5085716;28;20294;-62
2022/03/25 08:45:04;;;;;;;53.95;20.42;;;;;;;;;;5080689;28;20083;-62
2022/03/25 08:47:30;;;;;;;59.70;22.52;;;;;;;;;;5086201;28;20048;-60
2022/03/25 08:49:57;;;;;;;43.83;17.08;;;;;;;;;;5079819;28;20048;-62
2022/03/25 08:52:23;;;;;;;50.33;17.65;;;;;;;;;;5086885;28;20080;-61
2022/03/25 08:54:52;;;;;;;56.47;19.95;;;;;;;;;;5080978;28;20071;-65
2022/03/25 08:57:18;;;;;;;53.88;21.23;;;;;;;;;;5086659;28;20052;-67
2022/03/25 08:59:45;;;;;;;59.83;21.45;;;;;;;;;;5079673;28;20089;-60
2022/03/25 09:02:12;;;;;;;49.72;17.05;;;;;;;;;;5089172;28;20070;-61
2022/03/25 09:04:39;;;;;;;44.80;17.08;;;;;;;;;;5083608;28;20067;-59
2022/03/25 09:07:06;;;;;;;43.03;17.40;;;;;;;;;;5075876;28;20061;-63
2022/03/25 09:09:33;;;;;;;49.83;19.33;;;;;;;;;;5066913;28;20139;-64
2022/03/25 09:12:01;;;;;;;51.58;19.35;;;;;;;;;;5067293;28;20131;-63
2022/03/25 09:14:27;;;;;;;53.03;20.00;;;;;;;;;;5086735;28;20052;-62
2022/03/25 09:16:54;;;;;;;53.20;21.00;;;;;;;;;;5063213;28;20075;-62
2022/03/25 09:19:21;;;;;;;46.25;18.13;;;;;;;;;;5069873;28;20056;-60
2022/03/25 09:21:47;;;;;;;47.72;19.48;;;;;;;;;;5080284;28;20044;-59
2022/03/25 09:24:14;;;;;;;43.08;16.83;;;;;;;;;;5070076;28;20052;-60
2022/03/25 09:26:41;;;;;;;54.92;21.33;;;;;;;;;;5079815;28;20045;-63
2022/03/25 09:29:09;;;;;;;41.35;16.73;;;;;;;;;;5069594;28;20052;-61
2022/03/25 09:31:38;;;;;;;44.33;17.23;;;;;;;;;;5080334;28;20057;-60
2022/03/25 09:36:49;;;;;;;51.25;19.77;;;;;;;;;;5100768;27;20138;-62
2022/03/25 09:39:16;;;;;;;45.78;18.35;;;;;;;;;;5110225;27;20040;-59
2022/03/25 09:41:42;;;;;;;54.08;19.23;;;;;;;;;;5088178;28;20059;-59
2022/03/25 09:44:10;;;;;;;50.78;19.33;;;;;;;;;;5069184;28;20063;-64
2022/03/25 09:46:41;;;;;;;48.35;18.85;;;;;;;;;;5069579;28;20051;-63
2022/03/25 09:49:09;;;;;;;51.00;19.60;;;;;;;;;;5089621;28;20044;-62
2022/03/25 09:51:36;;;;;;;44.08;18.02;;;;;;;;;;5083403;28;20067;-63
2022/03/25 09:54:05;;;;;;;45.45;17.27;;;;;;;;;;5089590;28;20113;-63
2022/03/25 09:56:32;;;;;;;48.00;19.10;;;;;;;;;;5083940;28;20067;-65
2022/03/25 09:58:59;;;;;;;41.13;17.25;;;;;;;;;;5067644;28;20052;-64
2022/03/25 10:01:27;;;;;;;44.20;17.67;;;;;;;;;;5069162;28;20079;-63
2022/03/25 10:03:54;;;;;;;53.17;18.92;;;;;;;;;;5061903;28;20056;-65
2022/03/25 10:06:21;;;;;;;48.50;19.00;;;;;;;;;;5053417;28;20053;-64
2022/03/25 10:08:55;;;;;;;45.97;17.35;;;;;;;;;;5066962;28;20143;-60
2022/03/25 10:11:23;;;;;;;38.03;15.50;;;;;;;;;;5089730;28;20048;-67
2022/03/25 10:13:50;;;;;;;45.50;16.42;;;;;;;;;;5083283;28;20059;-66
2022/03/25 10:16:26;;;;;;;37.78;15.05;;;;;;;;;;5089871;28;20109;-61
2022/03/25 10:18:55;;;;;;;34.90;14.43;;;;;;;;;;5083925;28;20048;-62
2022/03/25 10:21:23;;;;;;;;;;;;;;;;;;5089546;28;20079;-65
2022/03/25 10:23:50;;;;;;;;;;;;;;;;;;5083645;28;19923;-64
2022/03/25 10:26:16;;;;;;;36.65;15.32;;;;;;;;;;5088816;28;19924;-65
2022/03/25 10:28:44;;;;;;;45.92;17.67;;;;;;;;;;5082816;28;20068;-61
2022/03/25 10:31:12;;;;;;;43.53;16.30;;;;;;;;;;5088620;28;20073;-67
2022/03/25 10:33:44;;;;;;;41.22;14.70;;;;;;;;;;5082512;28;20313;-64
2022/03/25 10:36:14;;;;;;;33.28;14.25;;;;;;;;;;5088678;28;20044;-62
2022/03/25 10:38:42;;;;;;;33.45;13.27;;;;;;;;;;5084420;28;20109;-68
2022/03/25 10:41:09;;;;;;;39.03;16.38;;;;;;;;;;5088877;28;20055;-69
2022/03/25 10:43:47;;;;;;;46.83;15.50;;;;;;;;;;5082892;28;20043;-64
2022/03/25 10:46:26;;;;;;;41.90;15.30;;;;;;;;;;5087500;28;20127;-63
2022/03/25 10:48:53;;;;;;;33.25;15.05;;;;;;;;;;5081898;28;20044;-64
2022/03/25 10:51:21;;;;;;;35.92;13.32;;;;;;;;;;5088046;28;20048;-67
2022/03/25 10:53:55;;;;;;;40.00;15.43;;;;;;;;;;5082680;28;20048;-61
2022/03/25 10:56:22;;;;;;;35.30;15.10;;;;;;;;;;5088202;28;20124;-64
2022/03/25 10:58:53;;;;;;;31.50;13.30;;;;;;;;;;5083029;28;20090;-61
2022/03/25 11:01:20;;;;;;;39.50;14.45;;;;;;;;;;5067550;28;20052;-63
2022/03/25 11:03:49;;;;;;;39.72;16.23;;;;;;;;;;5068742;27;20091;-59
2022/03/25 11:06:16;;;;;;;42.72;15.80;;;;;;;;;;5080032;28;20048;-63
2022/03/25 11:08:44;;;;;;;36.05;14.27;;;;;;;;;;5105135;28;20051;-65
2022/03/25 11:11:12;;;;;;;31.35;14.07;;;;;;;;;;5080868;28;20059;-63
2022/03/25 11:13:39;;;;;;;30.05;12.73;;;;;;;;;;5067949;28;20067;-61
2022/03/25 11:16:08;;;;;;;44.92;16.95;;;;;;;;;;5061090;28;20044;-64
2022/03/25 11:18:34;;;;;;;33.13;13.85;;;;;;;;;;5067142;28;20143;-66
2022/03/25 11:21:05;;;;;;;33.33;15.15;;;;;;;;;;5060944;28;20064;-63
2022/03/25 11:23:35;;;;;;;48.22;17.13;;;;;;;;;;5067421;28;20116;-62
2022/03/25 11:26:08;;;;;;;38.47;14.35;;;;;;;;;;5061886;28;20129;-66
2022/03/25 11:28:35;;;;;;;34.60;14.25;;;;;;;;;;5067644;28;20067;-63
2022/03/25 11:31:02;;;;;;;34.75;14.90;;;;;;;;;;5061351;28;20052;-60
2022/03/25 11:33:29;;;;;;;44.65;13.40;;;;;;;;;;5067376;28;20060;-60
2022/03/25 11:36:15;;;;;;;42.15;16.73;;;;;;;;;;5059322;28;20060;-61
2022/03/25 11:38:41;;;;;;;40.22;16.05;;;;;;;;;;5076952;28;20047;-61
2022/03/25 11:41:22;;;;;;;41.55;15.30;;;;;;;;;;5081129;28;20036;-66
2022/03/25 11:44:04;;;;;;;46.35;16.50;;;;;;;;;;5087954;28;20135;-65
2022/03/25 11:46:31;;;;;;;45.50;16.35;;;;;;;;;;5080732;28;20055;-69
2022/03/25 11:49:17;;;;;;;38.55;15.85;;;;;;;;;;5087116;28;20040;-63
2022/03/25 11:51:45;;;;;;;51.72;18.48;;;;;;;;;;5081450;28;20044;-67
2022/03/25 11:54:40;;;;;;;34.20;14.40;;;;;;;;;;5087311;28;20131;-66
2022/03/25 11:57:22;;;;;;;33.65;14.73;;;;;;;;;;5045075;28;20055;-68
2022/03/25 11:59:49;;;;;;;49.88;19.33;;;;;;;;;;5086793;28;20056;-67
2022/03/25 12:02:26;;;;;;;35.47;15.95;;;;;;;;;;5081326;28;20117;-69
2022/03/25 12:04:53;;;;;;;32.78;15.10;;;;;;;;;;5078527;28;20052;-63
2022/03/25 12:07:19;;;;;;;41.33;15.70;;;;;;;;;;5080773;28;20058;-68
2022/03/25 12:09:46;;;;;;;43.92;17.02;;;;;;;;;;5087101;28;20048;-61
2022/03/25 12:12:14;;;;;;;47.15;19.42;;;;;;;;;;5080845;28;20052;-60
2022/03/25 12:15:14;;;;;;;37.25;14.27;;;;;;;;;;5087523;28;20056;-59
2022/03/25 12:17:41;;;;;;;32.20;14.23;;;;;;;;;;5023166;28;20065;-62
2022/03/25 12:20:09;;;;;;;36.50;15.10;;;;;;;;;;5029902;28;20048;-64
2022/03/25 12:22:39;;;;;;;36.40;14.65;;;;;;;;;;5061699;28;20048;-64
2022/03/25 12:25:07;;;;;;;30.80;13.23;;;;;;;;;;5086716;28;20097;-65
2022/03/25 12:27:36;;;;;;;32.58;13.40;;;;;;;;;;5080986;28;20044;-69
2022/03/25 12:30:02;;;;;;;41.97;16.75;;;;;;;;;;5086743;28;20051;-63
2022/03/25 12:32:32;;;;;;;38.80;16.80;;;;;;;;;;5075366;28;20100;-66
2022/03/25 12:35:00;;;;;;;31.25;14.13;;;;;;;;;;5053115;28;20045;-63
2022/03/25 12:37:29;;;;;;;38.63;15.95;;;;;;;;;;5051080;28;20060;-62
2022/03/25 12:40:09;;;;;;;43.22;16.33;;;;;;;;;;5045842;28;20079;-62
2022/03/25 12:42:36;;;;;;;44.97;15.68;;;;;;;;;;5051132;28;20056;-61
2022/03/25 12:45:03;;;;;;;32.95;14.57;;;;;;;;;;5029241;28;20053;-63
2022/03/25 12:47:30;;;;;;;42.75;17.08;;;;;;;;;;5061736;28;20097;-65
2022/03/25 12:49:57;;;;;;;31.55;13.93;;;;;;;;;;5063922;28;20083;-64
2022/03/25 12:52:24;;;;;;;39.28;16.80;;;;;;;;;;5070488;28;20059;-61
2022/03/25 12:54:51;;;;;;;40.40;15.93;;;;;;;;;;5051245;28;20103;-60
2022/03/25 12:57:18;;;;;;;37.40;15.35;;;;;;;;;;5050519;28;20053;-63
2022/03/25 12:59:56;;;;;;;29.65;13.98;;;;;;;;;;5054208;28;20041;-64
2022/03/25 13:02:28;;;;;;;34.07;13.97;;;;;;;;;;5068745;28;20053;-60
2022/03/25 13:05:04;;;;;;;40.67;15.77;;;;;;;;;;5063706;28;20060;-61
2022/03/25 13:07:31;;;;;;;32.97;14.38;;;;;;;;;;5069862;28;20056;-67
2022/03/25 13:09:59;;;;;;;32.90;14.15;;;;;;;;;;5064115;28;20060;-63
2022/03/25 13:12:29;;;;;;;31.08;13.95;;;;;;;;;;5070049;28;20075;-68
2022/03/25 13:14:57;;;;;;;37.72;15.68;;;;;;;;;;5081024;28;20083;-68
2022/03/25 13:17:27;;;;;;;30.70;13.18;;;;;;;;;;5086360;28;20056;-65
2022/03/25 13:19:57;;;;;;;29.58;13.90;;;;;;;;;;5064307;28;20055;-65
2022/03/25 13:22:24;;;;;;;30.00;14.75;;;;;;;;;;5069947;28;20061;-62
2022/03/25 13:24:54;;;;;;;28.15;13.65;;;;;;;;;;5050724;28;20056;-62
2022/03/25 13:27:22;;;;;;;29.10;13.63;;;;;;;;;;5069246;28;20151;-64
2022/03/25 13:29:49;;;;;;;29.95;13.45;;;;;;;;;;5063094;28;20075;-61
2022/03/25 13:32:30;;;;;;;39.60;16.10;;;;;;;;;;5079574;28;20048;-67
2022/03/25 13:35:07;;;;;;;35.95;15.05;;;;;;;;;;5085334;28;20079;-65
2022/03/25 13:37:34;;;;;;;32.90;14.73;;;;;;;;;;5077047;28;20052;-62
2022/03/25 13:40:01;;;;;;;30.42;14.70;;;;;;;;;;5069366;28;20056;-66
2022/03/25 13:42:35;;;;;;;40.05;17.67;;;;;;;;;;5080494;28;20131;-67
2022/03/25 13:45:06;;;;;;;31.13;15.35;;;;;;;;;;5089711;28;20040;-66
2022/03/25 13:47:34;;;;;;;42.72;16.35;;;;;;;;;;5067276;28;20063;-70
2022/03/25 13:50:11;;;;;;;33.33;15.35;;;;;;;;;;5068402;28;20064;-65
2022/03/25 13:52:37;;;;;;;31.83;14.23;;;;;;;;;;5064766;28;20060;-61
2022/03/25 13:55:14;;;;;;;26.90;13.73;;;;;;;;;;5069095;28;20052;-62
2022/03/25 13:57:40;;;;;;;28.75;13.13;;;;;;;;;;5077164;28;20056;-62
2022/03/25 14:00:11;;;;;;;29.50;13.90;;;;;;;;;;5083865;28;20052;-60
2022/03/25 14:02:41;;;;;;;30.55;14.13;;;;;;;;;;5060425;28;20068;-64
2022/03/25 14:05:23;;;;;;;39.50;14.30;;;;;;;;;;5068981;28;20067;-65
2022/03/25 14:07:49;;;;;;;30.88;13.23;;;;;;;;;;5068955;28;20056;-61
2022/03/25 14:10:16;;;;;;;28.65;12.60;;;;;;;;;;5068127;28;20060;-65
2022/03/25 14:12:43;;;;;;;29.17;12.95;;;;;;;;;;5074239;28;20109;-68
2022/03/25 14:15:14;;;;;;;28.65;13.15;;;;;;;;;;5072614;28;20064;-61
2022/03/25 14:17:43;;;;;;;24.45;11.95;;;;;;;;;;5063738;28;20056;-65
2022/03/25 14:20:09;;;;;;;;;;;;;;;;;;5085626;28;20052;-62
2022/03/25 14:22:36;;;;;;;23.30;11.50;;;;;;;;;;5082271;28;19924;-60
2022/03/25 14:25:04;;;;;;;27.35;11.50;;;;;;;;;;5088585;28;20137;-64
2022/03/25 14:27:30;;;;;;;27.27;12.32;;;;;;;;;;5082274;28;20067;-61
2022/03/25 14:29:57;;;;;;;27.40;12.48;;;;;;;;;;5081754;28;20056;-64